Brownsville, TX

10:36 AM CST on January 21, 2018 (GMT -0600)
West Brownsville | | Change Station

Elev 35 ft 25.92 °N, 97.52 °W | Updated 9 seconds ago

Overcast
Overcast
70.7 °F
Feels Like 70.7 °F
N
12.0
Wind Variable Wind from SSE
Gusts 17.0 mph

Today
High -- | Low -- °F
--% Chance of Precip.
Yesterday
High -- | Low -- °F
Precip. -- in
Pressure 29.96 in
Visibility 10.0 miles
Clouds Scattered Clouds 1900 ft
Mostly Cloudy 2700 ft
Mostly Cloudy 3800 ft
Dew Point 67 °F
Humidity 88%
Rainfall 0.00 in
Snow Depth Not available.
7:17 AM 6:05 PM
Waxing Crescent, 19% visible
SPECI KBRO 211609Z 16020G26KT 10SM SCT019 BKN027 BKN038 24/20 A2996 RMK AO2 PK WND 15027/1556 T02390200 $
Pressure 29.96 in
Visibility 10.0 miles
Clouds Scattered Clouds 1900 ft
Mostly Cloudy 2700 ft
Mostly Cloudy 3800 ft
Dew Point 67 °F
Humidity 88%
Rainfall 0.00 in
Snow Depth Not available.
7:17 AM 6:05 PM
Waxing Crescent, 19% visible
SPECI KBRO 211609Z 16020G26KT 10SM SCT019 BKN027 BKN038 24/20 A2996 RMK AO2 PK WND 15027/1556 T02390200 $

Get Severe Weather Alerts

Thanks for signing up!

Be on the lookout for a verification email in your inbox.

You'll start receiving the daily forecast at 6 AM.

×

10-Day Weather Forecast

Almanac

Astronomy

Jan. 21, 2018 Rise Set
Actual Time
Civil Twilight
Nautical Twilight
Astronomical Twilight
Moon
Length of Visible Light
Length of Day
Tomorrow will be .
, % of the Moon is Illuminated

Today's Extremes

State Highs State Lows

Community

WunderPhotos

Category 6

Welcome to Category 6. This is the collective home for Weather Underground's featured writeups by Dr. Jeff Masters (right), Bob Henson (left), Chris Burt, and other regular contributors.

Nearby

Air Quality

  Air Quality AQ Index Pollutant
Not available.

Snow Depth

Station Depth Elevation

Earthquake Activity

City Distance Mag. Time & Date
Minimum magnitude displayed is 2.5.

Coastal Water Temperatures

Place Temperature

Stations

Nearby Weather Stations

Station Location Temp. Windchill Dew Point Humidity Wind Precip. Elev Updated Type
                   

Watches & Warnings

There are currently no watches in effect.